sensor_id;sensor_type;location;lat;lon;timestamp;pressure;altitude;pressure_sealevel;temperature;humidity
28310;BME280;15571;50.974;13.936;2022-09-09T00:00:47;99730.00;;;16.32;100.00
28310;BME280;15571;50.974;13.936;2022-09-09T00:03:59;99731.25;;;16.22;100.00
28310;BME280;15571;50.974;13.936;2022-09-09T00:07:07;99730.44;;;16.20;100.00
28310;BME280;15571;50.974;13.936;2022-09-09T00:10:23;99728.63;;;16.22;100.00
28310;BME280;15571;50.974;13.936;2022-09-09T00:13:31;99728.63;;;16.22;100.00
28310;BME280;15571;50.974;13.936;2022-09-09T00:16:40;99732.06;;;16.24;100.00
28310;BME280;15571;50.974;13.936;2022-09-09T00:19:50;99732.28;;;16.18;100.00
28310;BME280;15571;50.974;13.936;2022-09-09T00:23:01;99725.44;;;16.12;100.00
28310;BME280;15571;50.974;13.936;2022-09-09T00:26:16;99724.81;;;16.06;100.00
28310;BME280;15571;50.974;13.936;2022-09-09T00:29:26;99732.09;;;15.99;100.00
28310;BME280;15571;50.974;13.936;2022-09-09T00:32:32;99726.81;;;15.99;100.00
28310;BME280;15571;50.974;13.936;2022-09-09T00:35:41;99729.38;;;16.00;100.00
28310;BME280;15571;50.974;13.936;2022-09-09T00:38:48;99728.53;;;16.00;100.00
28310;BME280;15571;50.974;13.936;2022-09-09T00:42:03;99732.09;;;15.99;100.00
28310;BME280;15571;50.974;13.936;2022-09-09T00:45:33;99732.19;;;15.96;100.00
28310;BME280;15571;50.974;13.936;2022-09-09T00:48:47;99731.28;;;15.97;100.00
28310;BME280;15571;50.974;13.936;2022-09-09T00:52:02;99727.66;;;15.99;100.00
28310;BME280;15571;50.974;13.936;2022-09-09T00:55:15;99732.94;;;15.99;100.00
28310;BME280;15571;50.974;13.936;2022-09-09T00:58:21;99735.66;;;15.98;100.00
28310;BME280;15571;50.974;13.936;2022-09-09T01:01:24;99737.56;;;15.93;100.00
28310;BME280;15571;50.974;13.936;2022-09-09T01:04:33;99737.03;;;15.83;100.00
28310;BME280;15571;50.974;13.936;2022-09-09T01:07:37;99740.66;;;15.79;100.00
28310;BME280;15571;50.974;13.936;2022-09-09T01:10:47;99739.97;;;15.74;100.00
28310;BME280;15571;50.974;13.936;2022-09-09T01:13:59;99744.69;;;15.64;100.00
28310;BME280;15571;50.974;13.936;2022-09-09T01:17:12;99741.53;;;15.54;100.00
28310;BME280;15571;50.974;13.936;2022-09-09T01:20:24;99740.78;;;15.50;100.00
28310;BME280;15571;50.974;13.936;2022-09-09T01:23:52;99736.25;;;15.54;100.00
28310;BME280;15571;50.974;13.936;2022-09-09T01:27:10;99745.72;;;15.60;100.00
28310;BME280;15571;50.974;13.936;2022-09-09T01:30:16;99743.84;;;15.63;100.00
28310;BME280;15571;50.974;13.936;2022-09-09T01:33:21;99742.84;;;15.67;100.00
28310;BME280;15571;50.974;13.936;2022-09-09T01:36:33;99741.00;;;15.69;100.00
28310;BME280;15571;50.974;13.936;2022-09-09T01:39:44;99737.44;;;15.70;100.00
28310;BME280;15571;50.974;13.936;2022-09-09T01:42:52;99735.72;;;15.69;100.00
28310;BME280;15571;50.974;13.936;2022-09-09T01:45:59;99738.41;;;15.68;100.00
28310;BME280;15571;50.974;13.936;2022-09-09T01:49:03;99737.66;;;15.64;100.00
28310;BME280;15571;50.974;13.936;2022-09-09T01:52:07;99730.66;;;15.63;100.00
28310;BME280;15571;50.974;13.936;2022-09-09T01:55:12;99727.44;;;15.55;100.00
28310;BME280;15571;50.974;13.936;2022-09-09T01:58:28;99732.88;;;15.49;100.00
28310;BME280;15571;50.974;13.936;2022-09-09T02:01:47;99727.75;;;15.46;100.00
28310;BME280;15571;50.974;13.936;2022-09-09T02:05:10;99729.47;;;15.47;100.00
28310;BME280;15571;50.974;13.936;2022-09-09T02:08:17;99725.34;;;15.38;100.00
28310;BME280;15571;50.974;13.936;2022-09-09T02:11:36;99726.63;;;15.26;100.00
28310;BME280;15571;50.974;13.936;2022-09-09T02:14:58;99731.38;;;15.15;100.00
28310;BME280;15571;50.974;13.936;2022-09-09T02:18:14;99727.31;;;15.04;100.00
28310;BME280;15571;50.974;13.936;2022-09-09T02:21:22;99724.91;;;14.97;100.00
28310;BME280;15571;50.974;13.936;2022-09-09T02:24:30;99726.78;;;14.93;100.00
28310;BME280;15571;50.974;13.936;2022-09-09T02:27:47;99731.22;;;14.91;100.00
28310;BME280;15571;50.974;13.936;2022-09-09T02:30:53;99731.34;;;14.88;100.00
28310;BME280;15571;50.974;13.936;2022-09-09T02:34:02;99731.38;;;14.86;100.00
28310;BME280;15571;50.974;13.936;2022-09-09T02:37:08;99737.47;;;14.88;100.00
28310;BME280;15571;50.974;13.936;2022-09-09T02:40:13;99735.81;;;14.86;100.00
28310;BME280;15571;50.974;13.936;2022-09-09T02:43:21;99731.34;;;14.88;100.00
28310;BME280;15571;50.974;13.936;2022-09-09T02:46:36;99733.84;;;14.92;100.00
28310;BME280;15571;50.974;13.936;2022-09-09T02:49:52;99738.22;;;14.92;100.00
28310;BME280;15571;50.974;13.936;2022-09-09T02:53:06;99740.16;;;14.87;100.00
28310;BME280;15571;50.974;13.936;2022-09-09T02:56:20;99743.72;;;14.86;100.00
28310;BME280;15571;50.974;13.936;2022-09-09T02:59:25;99743.63;;;14.89;100.00
28310;BME280;15571;50.974;13.936;2022-09-09T03:02:33;99736.50;;;14.91;100.00
28310;BME280;15571;50.974;13.936;2022-09-09T03:05:39;99733.16;;;14.86;100.00
28310;BME280;15571;50.974;13.936;2022-09-09T03:08:42;99735.06;;;14.81;100.00
28310;BME280;15571;50.974;13.936;2022-09-09T03:11:46;99730.97;;;14.72;100.00
28310;BME280;15571;50.974;13.936;2022-09-09T03:14:50;99742.25;;;14.75;100.00
28310;BME280;15571;50.974;13.936;2022-09-09T03:17:54;99741.34;;;14.76;100.00
28310;BME280;15571;50.974;13.936;2022-09-09T03:21:00;99754.59;;;14.73;100.00
28310;BME280;15571;50.974;13.936;2022-09-09T03:24:04;99748.69;;;14.65;100.00
28310;BME280;15571;50.974;13.936;2022-09-09T03:27:08;99753.22;;;14.60;100.00
28310;BME280;15571;50.974;13.936;2022-09-09T03:30:12;99746.25;;;14.59;100.00
28310;BME280;15571;50.974;13.936;2022-09-09T03:33:18;99746.13;;;14.62;100.00
28310;BME280;15571;50.974;13.936;2022-09-09T03:36:21;99751.28;;;14.68;100.00
28310;BME280;15571;50.974;13.936;2022-09-09T03:39:24;99751.06;;;14.74;100.00
28310;BME280;15571;50.974;13.936;2022-09-09T03:42:27;99748.28;;;14.79;100.00
28310;BME280;15571;50.974;13.936;2022-09-09T03:45:31;99742.97;;;14.81;100.00
28310;BME280;15571;50.974;13.936;2022-09-09T03:48:39;99740.34;;;14.81;100.00
28310;BME280;15571;50.974;13.936;2022-09-09T03:51:41;99741.16;;;14.83;100.00
28310;BME280;15571;50.974;13.936;2022-09-09T03:54:46;99739.53;;;14.78;100.00
28310;BME280;15571;50.974;13.936;2022-09-09T03:57:49;99740.44;;;14.77;100.00
28310;BME280;15571;50.974;13.936;2022-09-09T04:00:54;99742.97;;;14.81;100.00
28310;BME280;15571;50.974;13.936;2022-09-09T04:03:59;99744.66;;;14.83;100.00
28310;BME280;15571;50.974;13.936;2022-09-09T04:07:03;99744.56;;;14.86;100.00
28310;BME280;15571;50.974;13.936;2022-09-09T04:10:08;99743.63;;;14.89;100.00
28310;BME280;15571;50.974;13.936;2022-09-09T04:13:13;99749.75;;;14.89;100.00
28310;BME280;15571;50.974;13.936;2022-09-09T04:16:20;99736.63;;;14.88;100.00
28310;BME280;15571;50.974;13.936;2022-09-09T04:20:05;99744.66;;;14.83;100.00
28310;BME280;15571;50.974;13.936;2022-09-09T04:23:09;99746.38;;;14.84;100.00
28310;BME280;15571;50.974;13.936;2022-09-09T04:26:11;99752.53;;;14.85;100.00
28310;BME280;15571;50.974;13.936;2022-09-09T04:29:15;99753.44;;;14.84;100.00
28310;BME280;15571;50.974;13.936;2022-09-09T04:32:17;99753.44;;;14.84;100.00
28310;BME280;15571;50.974;13.936;2022-09-09T04:35:24;99746.44;;;14.83;100.00
28310;BME280;15571;50.974;13.936;2022-09-09T04:38:31;99745.47;;;14.85;100.00
28310;BME280;15571;50.974;13.936;2022-09-09T04:41:34;99748.91;;;14.89;100.00
28310;BME280;15571;50.974;13.936;2022-09-09T04:44:36;99756.69;;;14.92;100.00
28310;BME280;15571;50.974;13.936;2022-09-09T04:47:40;99748.78;;;14.92;100.00
28310;BME280;15571;50.974;13.936;2022-09-09T04:50:53;99757.41;;;14.97;100.00
28310;BME280;15571;50.974;13.936;2022-09-09T04:53:59;99762.63;;;14.99;100.00
28310;BME280;15571;50.974;13.936;2022-09-09T04:57:02;99753.81;;;15.00;100.00
28310;BME280;15571;50.974;13.936;2022-09-09T05:00:05;99756.41;;;15.01;100.00
28310;BME280;15571;50.974;13.936;2022-09-09T05:03:13;99758.94;;;15.04;100.00
28310;BME280;15571;50.974;13.936;2022-09-09T05:06:18;99753.59;;;15.07;100.00
28310;BME280;15571;50.974;13.936;2022-09-09T05:09:23;99757.00;;;15.09;100.00
28310;BME280;15571;50.974;13.936;2022-09-09T05:12:26;99766.50;;;15.15;100.00
28310;BME280;15571;50.974;13.936;2022-09-09T05:15:32;99762.00;;;15.19;100.00
28310;BME280;15571;50.974;13.936;2022-09-09T05:18:36;99762.97;;;15.16;100.00
28310;BME280;15571;50.974;13.936;2022-09-09T05:21:40;99769.28;;;15.10;100.00
28310;BME280;15571;50.974;13.936;2022-09-09T05:24:43;99767.66;;;15.06;100.00
28310;BME280;15571;50.974;13.936;2022-09-09T05:27:50;99767.84;;;15.00;100.00
28310;BME280;15571;50.974;13.936;2022-09-09T05:30:58;99760.75;;;15.02;100.00
28310;BME280;15571;50.974;13.936;2022-09-09T05:34:02;99774.56;;;15.10;100.00
28310;BME280;15571;50.974;13.936;2022-09-09T05:37:06;99776.13;;;15.16;100.00
28310;BME280;15571;50.974;13.936;2022-09-09T05:40:11;99781.25;;;15.21;100.00
28310;BME280;15571;50.974;13.936;2022-09-09T05:43:17;99778.44;;;15.27;100.00
28310;BME280;15571;50.974;13.936;2022-09-09T05:46:21;99769.47;;;15.33;100.00
28310;BME280;15571;50.974;13.936;2022-09-09T05:49:26;99774.47;;;15.40;100.00
28310;BME280;15571;50.974;13.936;2022-09-09T05:52:30;99774.34;;;15.45;100.00
28310;BME280;15571;50.974;13.936;2022-09-09T05:55:34;99785.56;;;15.52;100.00
28310;BME280;15571;50.974;13.936;2022-09-09T05:58:40;99794.19;;;15.57;100.00
28310;BME280;15571;50.974;13.936;2022-09-09T06:01:45;99790.53;;;15.61;100.00
28310;BME280;15571;50.974;13.936;2022-09-09T06:04:57;99787.13;;;15.57;100.00
28310;BME280;15571;50.974;13.936;2022-09-09T06:08:02;99788.78;;;15.60;100.00
28310;BME280;15571;50.974;13.936;2022-09-09T06:11:07;99794.03;;;15.62;100.00
28310;BME280;15571;50.974;13.936;2022-09-09T06:14:12;99799.16;;;15.66;100.00
28310;BME280;15571;50.974;13.936;2022-09-09T06:17:23;99790.19;;;15.72;100.00
28310;BME280;15571;50.974;13.936;2022-09-09T06:20:26;99789.22;;;15.75;100.00
28310;BME280;15571;50.974;13.936;2022-09-09T06:23:33;99789.88;;;15.81;100.00
28310;BME280;15571;50.974;13.936;2022-09-09T06:26:38;99787.09;;;15.86;100.00
28310;BME280;15571;50.974;13.936;2022-09-09T06:29:46;99794.69;;;15.95;100.00
28310;BME280;15571;50.974;13.936;2022-09-09T06:32:50;99796.19;;;16.02;100.00
28310;BME280;15571;50.974;13.936;2022-09-09T06:35:53;99792.38;;;16.11;100.00
28310;BME280;15571;50.974;13.936;2022-09-09T06:39:00;99793.06;;;16.16;100.00
28310;BME280;15571;50.974;13.936;2022-09-09T06:42:05;99783.19;;;16.22;100.00
28310;BME280;15571;50.974;13.936;2022-09-09T06:45:24;99785.81;;;16.23;100.00
28310;BME280;15571;50.974;13.936;2022-09-09T06:48:32;99781.03;;;16.33;100.00
28310;BME280;15571;50.974;13.936;2022-09-09T06:51:36;99780.75;;;16.41;100.00
28310;BME280;15571;50.974;13.936;2022-09-09T06:54:46;99790.13;;;16.49;100.00
28310;BME280;15571;50.974;13.936;2022-09-09T06:57:51;99790.75;;;16.56;100.00
28310;BME280;15571;50.974;13.936;2022-09-09T07:01:04;99784.34;;;16.63;100.00
28310;BME280;15571;50.974;13.936;2022-09-09T07:04:08;99783.06;;;16.74;100.00
28310;BME280;15571;50.974;13.936;2022-09-09T07:07:14;99780.09;;;16.81;100.00
28310;BME280;15571;50.974;13.936;2022-09-09T07:10:20;99779.91;;;16.88;100.00
28310;BME280;15571;50.974;13.936;2022-09-09T07:13:24;99782.03;;;17.02;100.00
28310;BME280;15571;50.974;13.936;2022-09-09T07:16:28;99790.41;;;17.13;100.00
28310;BME280;15571;50.974;13.936;2022-09-09T07:19:37;99789.88;;;17.25;100.00
28310;BME280;15571;50.974;13.936;2022-09-09T07:22:48;99779.75;;;17.37;100.00
28310;BME280;15571;50.974;13.936;2022-09-09T07:25:52;99772.31;;;17.47;100.00
28310;BME280;15571;50.974;13.936;2022-09-09T07:28:56;99780.06;;;17.51;100.00
28310;BME280;15571;50.974;13.936;2022-09-09T07:31:58;99776.16;;;17.60;100.00
28310;BME280;15571;50.974;13.936;2022-09-09T07:35:07;99779.41;;;17.67;100.00
28310;BME280;15571;50.974;13.936;2022-09-09T07:38:10;99780.13;;;17.70;100.00
28310;BME280;15571;50.974;13.936;2022-09-09T07:41:18;99783.47;;;17.76;100.00
28310;BME280;15571;50.974;13.936;2022-09-09T07:44:24;99785.03;;;17.80;100.00
28310;BME280;15571;50.974;13.936;2022-09-09T07:47:38;99782.19;;;17.84;100.00
28310;BME280;15571;50.974;13.936;2022-09-09T07:50:44;99778.63;;;17.85;100.00
28310;BME280;15571;50.974;13.936;2022-09-09T07:53:46;99780.22;;;17.89;100.00
28310;BME280;15571;50.974;13.936;2022-09-09T07:56:54;99787.88;;;17.96;100.00
28310;BME280;15571;50.974;13.936;2022-09-09T08:00:03;99785.88;;;18.02;100.00
28310;BME280;15571;50.974;13.936;2022-09-09T08:03:13;99781.19;;;18.09;100.00
28310;BME280;15571;50.974;13.936;2022-09-09T08:06:18;99787.91;;;18.16;100.00
28310;BME280;15571;50.974;13.936;2022-09-09T08:09:21;99792.94;;;18.23;100.00
28310;BME280;15571;50.974;13.936;2022-09-09T08:12:28;99788.31;;;18.28;100.00
28310;BME280;15571;50.974;13.936;2022-09-09T08:15:31;99781.78;;;18.35;100.00
28310;BME280;15571;50.974;13.936;2022-09-09T08:18:35;99786.69;;;18.44;100.00
28310;BME280;15571;50.974;13.936;2022-09-09T08:21:42;99783.69;;;18.52;100.00
28310;BME280;15571;50.974;13.936;2022-09-09T08:24:47;99785.06;;;18.61;100.00
28310;BME280;15571;50.974;13.936;2022-09-09T08:27:52;99787.22;;;18.72;100.00
28310;BME280;15571;50.974;13.936;2022-09-09T08:30:55;99784.22;;;18.79;100.00
28310;BME280;15571;50.974;13.936;2022-09-09T08:34:01;99790.00;;;18.88;100.00
28310;BME280;15571;50.974;13.936;2022-09-09T08:37:05;99798.50;;;18.96;100.00
28310;BME280;15571;50.974;13.936;2022-09-09T08:40:20;99803.50;;;19.02;100.00
28310;BME280;15571;50.974;13.936;2022-09-09T08:43:26;99803.22;;;19.08;100.00
28310;BME280;15571;50.974;13.936;2022-09-09T08:46:38;99800.19;;;19.16;100.00
28310;BME280;15571;50.974;13.936;2022-09-09T08:50:02;99806.06;;;19.23;100.00
28310;BME280;15571;50.974;13.936;2022-09-09T08:53:12;99812.06;;;19.26;100.00
28310;BME280;15571;50.974;13.936;2022-09-09T08:56:21;99817.94;;;19.33;100.00
28310;BME280;15571;50.974;13.936;2022-09-09T08:59:29;99808.94;;;19.37;100.00
28310;BME280;15571;50.974;13.936;2022-09-09T09:02:36;99804.31;;;19.41;100.00
28310;BME280;15571;50.974;13.936;2022-09-09T09:05:46;99796.97;;;19.46;100.00
28310;BME280;15571;50.974;13.936;2022-09-09T09:08:58;99797.53;;;19.53;100.00
28310;BME280;15571;50.974;13.936;2022-09-09T09:12:13;99796.47;;;19.57;100.00
28310;BME280;15571;50.974;13.936;2022-09-09T09:15:24;99798.66;;;19.66;100.00
28310;BME280;15571;50.974;13.936;2022-09-09T09:18:31;99792.00;;;19.75;100.00
28310;BME280;15571;50.974;13.936;2022-09-09T09:21:40;99808.50;;;19.82;100.00
28310;BME280;15571;50.974;13.936;2022-09-09T09:24:51;99803.75;;;19.88;100.00
28310;BME280;15571;50.974;13.936;2022-09-09T09:27:59;99808.06;;;19.91;100.00
28310;BME280;15571;50.974;13.936;2022-09-09T09:31:10;99816.66;;;19.96;100.00
28310;BME280;15571;50.974;13.936;2022-09-09T09:34:20;99820.81;;;20.02;100.00
28310;BME280;15571;50.974;13.936;2022-09-09T09:37:28;99826.88;;;20.04;100.00
28310;BME280;15571;50.974;13.936;2022-09-09T09:40:32;99827.66;;;20.06;100.00
28310;BME280;15571;50.974;13.936;2022-09-09T09:43:37;99843.78;;;20.03;100.00
28310;BME280;15571;50.974;13.936;2022-09-09T09:46:45;99869.84;;;19.95;100.00
28310;BME280;15571;50.974;13.936;2022-09-09T09:49:55;99854.16;;;19.90;100.00
28310;BME280;15571;50.974;13.936;2022-09-09T09:53:04;99848.34;;;19.82;100.00
28310;BME280;15571;50.974;13.936;2022-09-09T09:56:16;99840.69;;;19.75;100.00
28310;BME280;15571;50.974;13.936;2022-09-09T09:59:21;99826.47;;;19.77;100.00
28310;BME280;15571;50.974;13.936;2022-09-09T10:02:38;99827.31;;;19.77;100.00
28310;BME280;15571;50.974;13.936;2022-09-09T10:05:47;99817.72;;;19.74;100.00
28310;BME280;15571;50.974;13.936;2022-09-09T10:08:51;99821.16;;;19.77;100.00
28310;BME280;15571;50.974;13.936;2022-09-09T10:12:00;99822.09;;;19.75;100.00
28310;BME280;15571;50.974;13.936;2022-09-09T10:15:19;99823.88;;;19.75;100.00
28310;BME280;15571;50.974;13.936;2022-09-09T10:18:53;99821.38;;;19.72;100.00
28310;BME280;15571;50.974;13.936;2022-09-09T10:22:09;99816.13;;;19.70;100.00
28310;BME280;15571;50.974;13.936;2022-09-09T10:25:35;99822.38;;;19.69;100.00
28310;BME280;15571;50.974;13.936;2022-09-09T10:28:57;99824.19;;;19.69;100.00
28310;BME280;15571;50.974;13.936;2022-09-09T10:32:20;99816.31;;;19.67;100.00
28310;BME280;15571;50.974;13.936;2022-09-09T10:35:44;99807.69;;;19.62;100.00
28310;BME280;15571;50.974;13.936;2022-09-09T10:38:54;99807.00;;;19.58;100.00
28310;BME280;15571;50.974;13.936;2022-09-09T10:42:03;99801.91;;;19.54;100.00
28310;BME280;15571;50.974;13.936;2022-09-09T10:45:16;99795.69;;;19.55;100.00
28310;BME280;15571;50.974;13.936;2022-09-09T10:48:30;99783.47;;;19.51;100.00
28310;BME280;15571;50.974;13.936;2022-09-09T10:51:40;99786.78;;;19.56;100.00
28310;BME280;15571;50.974;13.936;2022-09-09T10:54:54;99785.66;;;19.60;100.00
28310;BME280;15571;50.974;13.936;2022-09-09T10:58:00;99785.63;;;19.62;100.00
28310;BME280;15571;50.974;13.936;2022-09-09T11:01:13;99777.41;;;19.66;100.00
28310;BME280;15571;50.974;13.936;2022-09-09T11:04:19;99777.25;;;19.69;100.00
28310;BME280;15571;50.974;13.936;2022-09-09T11:07:33;99765.22;;;19.80;100.00
28310;BME280;15571;50.974;13.936;2022-09-09T11:10:41;99775.25;;;19.92;100.00
28310;BME280;15571;50.974;13.936;2022-09-09T11:13:49;99766.97;;;19.98;100.00
28310;BME280;15571;50.974;13.936;2022-09-09T11:16:58;99758.59;;;20.06;100.00
28310;BME280;15571;50.974;13.936;2022-09-09T11:20:06;99757.09;;;20.18;100.00
28310;BME280;15571;50.974;13.936;2022-09-09T11:23:17;99761.38;;;20.20;100.00
28310;BME280;15571;50.974;13.936;2022-09-09T11:26:30;99768.78;;;20.31;100.00
28310;BME280;15571;50.974;13.936;2022-09-09T11:30:03;99754.22;;;20.38;100.00
28310;BME280;15571;50.974;13.936;2022-09-09T11:33:31;99751.84;;;20.50;100.00
28310;BME280;15571;50.974;13.936;2022-09-09T11:36:56;99754.94;;;20.58;100.00
28310;BME280;15571;50.974;13.936;2022-09-09T11:40:17;99748.63;;;20.61;100.00
28310;BME280;15571;50.974;13.936;2022-09-09T15:49:45;99649.22;;;19.47;100.00
28310;BME280;15571;50.974;13.936;2022-09-09T15:52:49;99650.72;;;19.35;100.00
28310;BME280;15571;50.974;13.936;2022-09-09T15:55:54;99673.13;;;19.29;100.00
28310;BME280;15571;50.974;13.936;2022-09-09T15:58:58;99655.63;;;19.25;100.00
28310;BME280;15571;50.974;13.936;2022-09-09T16:02:01;99657.44;;;19.24;100.00
28310;BME280;15571;50.974;13.936;2022-09-09T16:05:06;99663.72;;;19.22;100.00
28310;BME280;15571;50.974;13.936;2022-09-09T16:08:08;99664.50;;;19.24;100.00
28310;BME280;15571;50.974;13.936;2022-09-09T16:11:16;99662.97;;;19.20;100.00
28310;BME280;15571;50.974;13.936;2022-09-09T16:14:20;99675.25;;;19.21;100.00
28310;BME280;15571;50.974;13.936;2022-09-09T16:17:24;99676.06;;;19.23;100.00
28310;BME280;15571;50.974;13.936;2022-09-09T16:20:30;99677.78;;;19.24;100.00
28310;BME280;15571;50.974;13.936;2022-09-09T16:23:32;99672.47;;;19.24;100.00
28310;BME280;15571;50.974;13.936;2022-09-09T16:26:37;99675.13;;;19.24;100.00
28310;BME280;15571;50.974;13.936;2022-09-09T16:29:40;99686.66;;;19.23;100.00
28310;BME280;15571;50.974;13.936;2022-09-09T16:32:46;99670.97;;;19.18;100.00
28310;BME280;15571;50.974;13.936;2022-09-09T16:35:50;99673.06;;;19.11;100.00
28310;BME280;15571;50.974;13.936;2022-09-09T16:38:53;99677.06;;;19.03;100.00
28310;BME280;15571;50.974;13.936;2022-09-09T16:41:57;99678.06;;;19.00;100.00
28310;BME280;15571;50.974;13.936;2022-09-09T16:45:00;99687.81;;;19.00;100.00
28310;BME280;15571;50.974;13.936;2022-09-09T16:48:06;99697.56;;;18.99;100.00
28310;BME280;15571;50.974;13.936;2022-09-09T16:51:13;99698.28;;;19.03;100.00
28310;BME280;15571;50.974;13.936;2022-09-09T16:54:19;99698.09;;;19.06;100.00
28310;BME280;15571;50.974;13.936;2022-09-09T16:57:22;99693.69;;;19.06;100.00
28310;BME280;15571;50.974;13.936;2022-09-09T17:00:31;99699.78;;;19.08;100.00
28310;BME280;15571;50.974;13.936;2022-09-09T17:03:35;99709.44;;;19.09;100.00
28310;BME280;15571;50.974;13.936;2022-09-09T17:06:39;99709.72;;;19.03;100.00
28310;BME280;15571;50.974;13.936;2022-09-09T17:09:45;99705.06;;;18.89;100.00
28310;BME280;15571;50.974;13.936;2022-09-09T17:12:47;99709.66;;;18.86;100.00
28310;BME280;15571;50.974;13.936;2022-09-09T17:15:50;99710.47;;;18.88;100.00
28310;BME280;15571;50.974;13.936;2022-09-09T17:18:54;99717.31;;;18.92;100.00
28310;BME280;15571;50.974;13.936;2022-09-09T17:22:00;99713.75;;;18.93;100.00
28310;BME280;15571;50.974;13.936;2022-09-09T17:25:02;99721.66;;;18.94;100.00
28310;BME280;15571;50.974;13.936;2022-09-09T17:28:05;99722.78;;;18.89;100.00
28310;BME280;15571;50.974;13.936;2022-09-09T17:31:09;99721.13;;;18.86;100.00
28310;BME280;15571;50.974;13.936;2022-09-09T17:34:12;99720.28;;;18.86;100.00
28310;BME280;15571;50.974;13.936;2022-09-09T17:37:17;99723.78;;;18.86;100.00
28310;BME280;15571;50.974;13.936;2022-09-09T17:40:19;99724.78;;;18.83;100.00
28310;BME280;15571;50.974;13.936;2022-09-09T17:43:22;99724.78;;;18.83;100.00
28310;BME280;15571;50.974;13.936;2022-09-09T17:46:30;99724.88;;;18.82;100.00
28310;BME280;15571;50.974;13.936;2022-09-09T17:49:34;99726.94;;;18.75;100.00
28310;BME280;15571;50.974;13.936;2022-09-09T17:52:41;99739.34;;;18.75;100.00
28310;BME280;15571;50.974;13.936;2022-09-09T17:55:44;99740.22;;;18.75;100.00
28310;BME280;15571;50.974;13.936;2022-09-09T17:58:48;99756.91;;;18.77;100.00
28310;BME280;15571;50.974;13.936;2022-09-09T18:01:54;99760.47;;;18.76;100.00
28310;BME280;15571;50.974;13.936;2022-09-09T18:04:57;99756.03;;;18.77;100.00
28310;BME280;15571;50.974;13.936;2022-09-09T18:08:01;99755.28;;;18.75;100.00
28310;BME280;15571;50.974;13.936;2022-09-09T18:11:05;99762.47;;;18.71;100.00
28310;BME280;15571;50.974;13.936;2022-09-09T18:14:09;99772.25;;;18.71;100.00
28310;BME280;15571;50.974;13.936;2022-09-09T18:17:13;99774.97;;;18.69;100.00
28310;BME280;15571;50.974;13.936;2022-09-09T18:20:17;99780.41;;;18.66;100.00
28310;BME280;15571;50.974;13.936;2022-09-09T18:23:23;99772.38;;;18.48;100.00
28310;BME280;15571;50.974;13.936;2022-09-09T18:26:28;99777.94;;;18.42;100.00
28310;BME280;15571;50.974;13.936;2022-09-09T18:29:33;99783.38;;;18.39;100.00
28310;BME280;15571;50.974;13.936;2022-09-09T18:32:36;99765.75;;;18.38;100.00
28310;BME280;15571;50.974;13.936;2022-09-09T18:35:38;99766.31;;;18.26;100.00
28310;BME280;15571;50.974;13.936;2022-09-09T18:38:43;99758.56;;;18.21;100.00
28310;BME280;15571;50.974;13.936;2022-09-09T18:41:47;99757.72;;;18.20;100.00
28310;BME280;15571;50.974;13.936;2022-09-09T18:44:50;99767.41;;;18.22;100.00
28310;BME280;15571;50.974;13.936;2022-09-09T18:47:57;99760.38;;;18.20;100.00
28310;BME280;15571;50.974;13.936;2022-09-09T18:51:01;99756.00;;;18.19;100.00
28310;BME280;15571;50.974;13.936;2022-09-09T18:54:13;99769.16;;;18.21;100.00
28310;BME280;15571;50.974;13.936;2022-09-09T18:57:18;99763.78;;;18.23;100.00
28310;BME280;15571;50.974;13.936;2022-09-09T19:00:21;99765.59;;;18.22;100.00
28310;BME280;15571;50.974;13.936;2022-09-09T19:03:24;99778.84;;;18.22;100.00
28310;BME280;15571;50.974;13.936;2022-09-09T19:06:32;99782.34;;;18.23;100.00
28310;BME280;15571;50.974;13.936;2022-09-09T19:09:37;99787.63;;;18.23;100.00
28310;BME280;15571;50.974;13.936;2022-09-09T19:12:39;99791.50;;;18.15;100.00
28310;BME280;15571;50.974;13.936;2022-09-09T19:15:42;99796.19;;;18.09;100.00
28310;BME280;15571;50.974;13.936;2022-09-09T19:18:47;99796.34;;;18.06;100.00
28310;BME280;15571;50.974;13.936;2022-09-09T19:21:53;99785.03;;;18.02;100.00
28310;BME280;15571;50.974;13.936;2022-09-09T19:24:58;99789.44;;;18.01;100.00
28310;BME280;15571;50.974;13.936;2022-09-09T19:28:03;99798.25;;;18.02;100.00
28310;BME280;15571;50.974;13.936;2022-09-09T19:31:09;99802.59;;;18.03;100.00
28310;BME280;15571;50.974;13.936;2022-09-09T19:34:12;99803.56;;;18.02;100.00
28310;BME280;15571;50.974;13.936;2022-09-09T19:37:14;99825.53;;;18.04;100.00
28310;BME280;15571;50.974;13.936;2022-09-09T19:40:21;99825.66;;;18.01;100.00
28310;BME280;15571;50.974;13.936;2022-09-09T19:43:24;99823.94;;;18.00;100.00
28310;BME280;15571;50.974;13.936;2022-09-09T19:46:28;99818.84;;;17.94;100.00
28310;BME280;15571;50.974;13.936;2022-09-09T19:49:31;99812.72;;;17.93;100.00
28310;BME280;15571;50.974;13.936;2022-09-09T19:52:34;99804.97;;;17.88;100.00
28310;BME280;15571;50.974;13.936;2022-09-09T19:55:39;99806.69;;;17.89;100.00
28310;BME280;15571;50.974;13.936;2022-09-09T19:58:44;99803.25;;;17.87;100.00
28310;BME280;15571;50.974;13.936;2022-09-09T20:01:49;99811.19;;;17.87;100.00
28310;BME280;15571;50.974;13.936;2022-09-09T20:04:57;99815.56;;;17.88;100.00
28310;BME280;15571;50.974;13.936;2022-09-09T20:08:00;99806.94;;;17.83;100.00
28310;BME280;15571;50.974;13.936;2022-09-09T20:11:05;99806.22;;;17.80;100.00
28310;BME280;15571;50.974;13.936;2022-09-09T20:14:08;99807.09;;;17.80;100.00